sensor_id;sensor_type;location;lat;lon;timestamp;P1;durP1;ratioP1;P2;durP2;ratioP2
45684;SDS011;46836;48.388;16.210;2023-06-04T00:01:15;6.40;;;3.08;;
45684;SDS011;46836;48.388;16.210;2023-06-04T00:03:43;6.00;;;2.63;;
45684;SDS011;46836;48.388;16.210;2023-06-04T00:06:10;6.55;;;3.03;;
45684;SDS011;46836;48.388;16.210;2023-06-04T00:08:37;7.72;;;2.97;;
45684;SDS011;46836;48.388;16.210;2023-06-04T00:11:05;5.97;;;2.75;;
45684;SDS011;46836;48.388;16.210;2023-06-04T00:13:32;2.75;;;2.53;;
45684;SDS011;46836;48.388;16.210;2023-06-04T00:15:59;4.05;;;2.85;;
45684;SDS011;46836;48.388;16.210;2023-06-04T00:18:27;6.78;;;2.70;;
45684;SDS011;46836;48.388;16.210;2023-06-04T00:20:54;3.95;;;2.90;;
45684;SDS011;46836;48.388;16.210;2023-06-04T00:23:21;4.03;;;2.67;;
45684;SDS011;46836;48.388;16.210;2023-06-04T00:25:48;5.00;;;2.53;;
45684;SDS011;46836;48.388;16.210;2023-06-04T00:28:15;3.65;;;3.20;;
45684;SDS011;46836;48.388;16.210;2023-06-04T00:30:42;3.40;;;2.42;;
45684;SDS011;46836;48.388;16.210;2023-06-04T00:33:09;4.72;;;2.60;;
45684;SDS011;46836;48.388;16.210;2023-06-04T00:35:36;5.30;;;2.97;;
45684;SDS011;46836;48.388;16.210;2023-06-04T00:38:03;5.20;;;3.10;;
45684;SDS011;46836;48.388;16.210;2023-06-04T00:40:31;2.95;;;2.65;;
45684;SDS011;46836;48.388;16.210;2023-06-04T00:42:58;2.92;;;2.42;;
45684;SDS011;46836;48.388;16.210;2023-06-04T00:45:25;4.43;;;2.80;;
45684;SDS011;46836;48.388;16.210;2023-06-04T00:47:53;3.30;;;2.70;;
45684;SDS011;46836;48.388;16.210;2023-06-04T00:50:22;5.25;;;2.90;;
45684;SDS011;46836;48.388;16.210;2023-06-04T00:52:49;5.18;;;3.05;;
45684;SDS011;46836;48.388;16.210;2023-06-04T00:55:17;3.63;;;2.20;;
45684;SDS011;46836;48.388;16.210;2023-06-04T00:57:45;4.38;;;2.75;;
45684;SDS011;46836;48.388;16.210;2023-06-04T01:00:12;5.22;;;2.92;;
45684;SDS011;46836;48.388;16.210;2023-06-04T01:02:41;4.03;;;2.85;;
45684;SDS011;46836;48.388;16.210;2023-06-04T01:05:14;4.85;;;2.70;;
45684;SDS011;46836;48.388;16.210;2023-06-04T01:07:59;4.60;;;3.42;;
45684;SDS011;46836;48.388;16.210;2023-06-04T01:10:27;6.20;;;3.30;;
45684;SDS011;46836;48.388;16.210;2023-06-04T01:12:54;4.45;;;3.25;;
45684;SDS011;46836;48.388;16.210;2023-06-04T01:15:21;5.72;;;3.25;;
45684;SDS011;46836;48.388;16.210;2023-06-04T01:17:49;6.72;;;2.92;;
45684;SDS011;46836;48.388;16.210;2023-06-04T01:20:28;5.47;;;2.47;;
45684;SDS011;46836;48.388;16.210;2023-06-04T01:26:01;5.03;;;3.15;;
45684;SDS011;46836;48.388;16.210;2023-06-04T01:28:33;3.83;;;2.50;;
45684;SDS011;46836;48.388;16.210;2023-06-04T01:31:02;4.05;;;2.92;;
45684;SDS011;46836;48.388;16.210;2023-06-04T01:33:31;4.78;;;2.88;;
45684;SDS011;46836;48.388;16.210;2023-06-04T01:35:59;4.40;;;3.00;;
45684;SDS011;46836;48.388;16.210;2023-06-04T01:38:27;6.50;;;3.35;;
45684;SDS011;46836;48.388;16.210;2023-06-04T01:40:54;4.93;;;2.65;;
45684;SDS011;46836;48.388;16.210;2023-06-04T01:43:23;3.08;;;2.60;;
45684;SDS011;46836;48.388;16.210;2023-06-04T01:45:50;3.33;;;2.65;;
45684;SDS011;46836;48.388;16.210;2023-06-04T01:48:17;3.85;;;2.90;;
45684;SDS011;46836;48.388;16.210;2023-06-04T01:50:44;4.75;;;2.92;;
45684;SDS011;46836;48.388;16.210;2023-06-04T01:53:11;3.75;;;2.90;;
45684;SDS011;46836;48.388;16.210;2023-06-04T01:55:38;4.10;;;2.50;;
45684;SDS011;46836;48.388;16.210;2023-06-04T01:58:05;6.40;;;2.92;;
45684;SDS011;46836;48.388;16.210;2023-06-04T02:00:33;3.25;;;2.92;;
45684;SDS011;46836;48.388;16.210;2023-06-04T02:03:00;2.60;;;2.40;;
45684;SDS011;46836;48.388;16.210;2023-06-04T02:05:28;3.30;;;2.65;;
45684;SDS011;46836;48.388;16.210;2023-06-04T02:07:55;4.15;;;2.90;;
45684;SDS011;46836;48.388;16.210;2023-06-04T02:10:23;5.45;;;3.15;;
45684;SDS011;46836;48.388;16.210;2023-06-04T02:12:55;4.35;;;2.78;;
45684;SDS011;46836;48.388;16.210;2023-06-04T02:15:24;4.35;;;2.50;;
45684;SDS011;46836;48.388;16.210;2023-06-04T02:18:00;4.78;;;2.72;;
45684;SDS011;46836;48.388;16.210;2023-06-04T02:20:51;5.72;;;3.15;;
45684;SDS011;46836;48.388;16.210;2023-06-04T02:23:18;10.07;;;3.15;;
45684;SDS011;46836;48.388;16.210;2023-06-04T02:25:47;3.88;;;2.75;;
45684;SDS011;46836;48.388;16.210;2023-06-04T02:28:16;2.83;;;2.53;;
45684;SDS011;46836;48.388;16.210;2023-06-04T02:30:44;4.38;;;3.25;;
45684;SDS011;46836;48.388;16.210;2023-06-04T02:33:14;6.03;;;2.95;;
45684;SDS011;46836;48.388;16.210;2023-06-04T02:35:41;5.28;;;3.17;;
45684;SDS011;46836;48.388;16.210;2023-06-04T02:38:09;8.23;;;2.72;;
45684;SDS011;46836;48.388;16.210;2023-06-04T02:40:36;5.05;;;3.10;;
45684;SDS011;46836;48.388;16.210;2023-06-04T02:43:03;5.15;;;3.17;;
45684;SDS011;46836;48.388;16.210;2023-06-04T02:45:30;5.50;;;2.83;;
45684;SDS011;46836;48.388;16.210;2023-06-04T02:47:57;3.47;;;2.92;;
45684;SDS011;46836;48.388;16.210;2023-06-04T02:50:25;3.83;;;2.83;;
45684;SDS011;46836;48.388;16.210;2023-06-04T02:52:52;5.00;;;2.97;;
45684;SDS011;46836;48.388;16.210;2023-06-04T02:55:19;3.83;;;3.17;;
45684;SDS011;46836;48.388;16.210;2023-06-04T02:57:46;6.60;;;3.63;;
45684;SDS011;46836;48.388;16.210;2023-06-04T03:00:13;3.28;;;2.97;;
45684;SDS011;46836;48.388;16.210;2023-06-04T03:02:43;5.53;;;3.30;;
45684;SDS011;46836;48.388;16.210;2023-06-04T03:05:13;4.57;;;2.97;;
45684;SDS011;46836;48.388;16.210;2023-06-04T03:07:42;6.57;;;3.72;;
45684;SDS011;46836;48.388;16.210;2023-06-04T03:10:12;4.95;;;3.42;;
45684;SDS011;46836;48.388;16.210;2023-06-04T03:12:39;4.75;;;2.88;;
45684;SDS011;46836;48.388;16.210;2023-06-04T03:15:07;4.82;;;2.70;;
45684;SDS011;46836;48.388;16.210;2023-06-04T03:17:34;4.35;;;2.60;;
45684;SDS011;46836;48.388;16.210;2023-06-04T03:20:02;6.43;;;3.05;;
45684;SDS011;46836;48.388;16.210;2023-06-04T03:22:33;4.43;;;3.22;;
45684;SDS011;46836;48.388;16.210;2023-06-04T03:25:02;2.88;;;2.60;;
45684;SDS011;46836;48.388;16.210;2023-06-04T03:27:30;3.60;;;2.65;;
45684;SDS011;46836;48.388;16.210;2023-06-04T03:29:58;3.90;;;2.97;;
45684;SDS011;46836;48.388;16.210;2023-06-04T03:32:25;3.50;;;2.60;;
45684;SDS011;46836;48.388;16.210;2023-06-04T03:34:53;5.20;;;3.08;;
45684;SDS011;46836;48.388;16.210;2023-06-04T03:37:20;5.85;;;2.88;;
45684;SDS011;46836;48.388;16.210;2023-06-04T03:39:48;3.17;;;2.55;;
45684;SDS011;46836;48.388;16.210;2023-06-04T03:42:15;5.05;;;2.60;;
45684;SDS011;46836;48.388;16.210;2023-06-04T03:44:42;3.90;;;2.60;;
45684;SDS011;46836;48.388;16.210;2023-06-04T03:47:09;5.32;;;2.67;;
45684;SDS011;46836;48.388;16.210;2023-06-04T03:49:36;5.20;;;3.10;;
45684;SDS011;46836;48.388;16.210;2023-06-04T03:52:03;3.50;;;2.80;;
45684;SDS011;46836;48.388;16.210;2023-06-04T03:54:31;5.85;;;3.35;;
45684;SDS011;46836;48.388;16.210;2023-06-04T03:56:58;5.35;;;2.80;;
45684;SDS011;46836;48.388;16.210;2023-06-04T03:59:25;6.97;;;3.20;;
45684;SDS011;46836;48.388;16.210;2023-06-04T04:01:52;10.57;;;2.97;;
45684;SDS011;46836;48.388;16.210;2023-06-04T04:04:19;3.78;;;2.75;;
45684;SDS011;46836;48.388;16.210;2023-06-04T04:06:47;5.35;;;3.08;;
45684;SDS011;46836;48.388;16.210;2023-06-04T04:09:14;6.25;;;3.10;;
45684;SDS011;46836;48.388;16.210;2023-06-04T04:11:42;4.38;;;2.70;;
45684;SDS011;46836;48.388;16.210;2023-06-04T04:14:09;3.72;;;2.90;;
45684;SDS011;46836;48.388;16.210;2023-06-04T04:16:36;3.10;;;2.75;;
45684;SDS011;46836;48.388;16.210;2023-06-04T04:19:03;3.58;;;2.35;;
45684;SDS011;46836;48.388;16.210;2023-06-04T04:21:30;8.27;;;2.75;;
45684;SDS011;46836;48.388;16.210;2023-06-04T04:23:57;3.47;;;2.67;;
45684;SDS011;46836;48.388;16.210;2023-06-04T04:26:24;8.00;;;2.78;;
45684;SDS011;46836;48.388;16.210;2023-06-04T04:28:54;4.85;;;2.45;;
45684;SDS011;46836;48.388;16.210;2023-06-04T04:31:26;11.18;;;3.17;;
45684;SDS011;46836;48.388;16.210;2023-06-04T04:33:54;8.55;;;3.28;;
45684;SDS011;46836;48.388;16.210;2023-06-04T04:36:22;5.20;;;3.03;;
45684;SDS011;46836;48.388;16.210;2023-06-04T04:38:50;4.32;;;3.33;;
45684;SDS011;46836;48.388;16.210;2023-06-04T04:41:21;3.05;;;2.65;;
45684;SDS011;46836;48.388;16.210;2023-06-04T04:43:52;5.43;;;2.70;;
45684;SDS011;46836;48.388;16.210;2023-06-04T04:46:20;5.40;;;3.35;;
45684;SDS011;46836;48.388;16.210;2023-06-04T04:48:47;10.70;;;2.70;;
45684;SDS011;46836;48.388;16.210;2023-06-04T04:51:14;6.00;;;2.85;;
45684;SDS011;46836;48.388;16.210;2023-06-04T04:53:41;3.75;;;2.65;;
45684;SDS011;46836;48.388;16.210;2023-06-04T04:56:09;5.95;;;3.20;;
45684;SDS011;46836;48.388;16.210;2023-06-04T04:58:36;3.38;;;2.88;;
45684;SDS011;46836;48.388;16.210;2023-06-04T05:01:03;4.85;;;3.28;;
45684;SDS011;46836;48.388;16.210;2023-06-04T05:03:31;6.22;;;3.08;;
45684;SDS011;46836;48.388;16.210;2023-06-04T05:05:58;4.65;;;3.00;;
45684;SDS011;46836;48.388;16.210;2023-06-04T05:08:25;7.90;;;3.00;;
45684;SDS011;46836;48.388;16.210;2023-06-04T05:10:52;4.63;;;3.45;;
45684;SDS011;46836;48.388;16.210;2023-06-04T05:13:19;5.55;;;3.30;;
45684;SDS011;46836;48.388;16.210;2023-06-04T05:15:46;5.68;;;3.05;;
45684;SDS011;46836;48.388;16.210;2023-06-04T05:18:14;4.72;;;3.25;;
45684;SDS011;46836;48.388;16.210;2023-06-04T05:20:42;4.18;;;2.78;;
45684;SDS011;46836;48.388;16.210;2023-06-04T05:23:10;6.40;;;3.10;;
45684;SDS011;46836;48.388;16.210;2023-06-04T05:25:39;8.35;;;3.33;;
45684;SDS011;46836;48.388;16.210;2023-06-04T05:28:07;3.72;;;3.10;;
45684;SDS011;46836;48.388;16.210;2023-06-04T05:30:34;3.22;;;2.92;;
45684;SDS011;46836;48.388;16.210;2023-06-04T05:33:02;4.35;;;2.97;;
45684;SDS011;46836;48.388;16.210;2023-06-04T05:35:29;5.32;;;3.08;;
45684;SDS011;46836;48.388;16.210;2023-06-04T05:37:59;6.07;;;3.22;;
45684;SDS011;46836;48.388;16.210;2023-06-04T05:40:26;3.65;;;3.03;;
45684;SDS011;46836;48.388;16.210;2023-06-04T05:42:54;4.68;;;3.10;;
45684;SDS011;46836;48.388;16.210;2023-06-04T05:45:21;3.85;;;3.28;;
45684;SDS011;46836;48.388;16.210;2023-06-04T05:47:48;3.70;;;2.80;;
45684;SDS011;46836;48.388;16.210;2023-06-04T05:50:15;7.20;;;3.00;;
45684;SDS011;46836;48.388;16.210;2023-06-04T05:52:42;3.65;;;3.10;;
45684;SDS011;46836;48.388;16.210;2023-06-04T05:55:09;4.60;;;2.85;;
45684;SDS011;46836;48.388;16.210;2023-06-04T05:57:36;5.78;;;2.97;;
45684;SDS011;46836;48.388;16.210;2023-06-04T06:00:04;4.27;;;3.23;;
45684;SDS011;46836;48.388;16.210;2023-06-04T06:02:37;4.77;;;3.13;;
45684;SDS011;46836;48.388;16.210;2023-06-04T06:05:05;11.43;;;3.70;;
45684;SDS011;46836;48.388;16.210;2023-06-04T06:07:35;6.53;;;3.60;;
45684;SDS011;46836;48.388;16.210;2023-06-04T06:10:03;5.50;;;3.40;;
45684;SDS011;46836;48.388;16.210;2023-06-04T06:12:30;4.63;;;3.27;;
45684;SDS011;46836;48.388;16.210;2023-06-04T06:14:58;6.73;;;3.37;;
45684;SDS011;46836;48.388;16.210;2023-06-04T06:17:25;4.03;;;3.53;;
45684;SDS011;46836;48.388;16.210;2023-06-04T06:19:52;4.20;;;3.20;;
45684;SDS011;46836;48.388;16.210;2023-06-04T06:22:19;4.60;;;3.17;;
45684;SDS011;46836;48.388;16.210;2023-06-04T06:24:46;3.30;;;3.00;;
45684;SDS011;46836;48.388;16.210;2023-06-04T06:27:16;4.47;;;3.13;;
45684;SDS011;46836;48.388;16.210;2023-06-04T06:29:44;4.30;;;3.47;;
45684;SDS011;46836;48.388;16.210;2023-06-04T06:32:11;3.90;;;3.17;;
45684;SDS011;46836;48.388;16.210;2023-06-04T06:34:39;10.20;;;3.80;;
45684;SDS011;46836;48.388;16.210;2023-06-04T06:37:06;5.83;;;3.70;;
45684;SDS011;46836;48.388;16.210;2023-06-04T06:39:33;4.70;;;3.00;;
45684;SDS011;46836;48.388;16.210;2023-06-04T06:42:00;5.47;;;3.20;;
45684;SDS011;46836;48.388;16.210;2023-06-04T06:44:27;8.43;;;3.80;;
45684;SDS011;46836;48.388;16.210;2023-06-04T06:46:54;4.03;;;3.63;;
45684;SDS011;46836;48.388;16.210;2023-06-04T06:49:21;5.00;;;3.50;;
45684;SDS011;46836;48.388;16.210;2023-06-04T06:51:49;6.37;;;3.80;;
45684;SDS011;46836;48.388;16.210;2023-06-04T06:54:16;7.23;;;3.60;;
45684;SDS011;46836;48.388;16.210;2023-06-04T06:56:43;5.40;;;3.43;;
45684;SDS011;46836;48.388;16.210;2023-06-04T06:59:10;6.63;;;3.60;;
45684;SDS011;46836;48.388;16.210;2023-06-04T07:01:37;3.10;;;2.80;;
45684;SDS011;46836;48.388;16.210;2023-06-04T07:04:04;5.23;;;3.53;;
45684;SDS011;46836;48.388;16.210;2023-06-04T07:06:33;5.40;;;3.67;;
45684;SDS011;46836;48.388;16.210;2023-06-04T07:09:02;5.37;;;3.43;;
45684;SDS011;46836;48.388;16.210;2023-06-04T07:11:32;5.77;;;3.43;;
45684;SDS011;46836;48.388;16.210;2023-06-04T07:13:59;5.87;;;3.40;;
45684;SDS011;46836;48.388;16.210;2023-06-04T07:16:28;5.37;;;4.30;;
45684;SDS011;46836;48.388;16.210;2023-06-04T07:18:56;4.50;;;4.10;;
45684;SDS011;46836;48.388;16.210;2023-06-04T07:21:23;6.70;;;4.30;;
45684;SDS011;46836;48.388;16.210;2023-06-04T07:23:50;5.57;;;3.97;;
45684;SDS011;46836;48.388;16.210;2023-06-04T07:26:17;4.70;;;3.80;;
45684;SDS011;46836;48.388;16.210;2023-06-04T07:28:45;9.03;;;4.00;;
45684;SDS011;46836;48.388;16.210;2023-06-04T07:31:15;3.90;;;3.60;;
45684;SDS011;46836;48.388;16.210;2023-06-04T07:33:43;4.43;;;4.03;;
45684;SDS011;46836;48.388;16.210;2023-06-04T07:36:12;5.27;;;3.77;;
45684;SDS011;46836;48.388;16.210;2023-06-04T07:38:40;7.00;;;4.47;;
45684;SDS011;46836;48.388;16.210;2023-06-04T07:41:07;5.27;;;3.40;;
45684;SDS011;46836;48.388;16.210;2023-06-04T07:43:35;3.87;;;3.57;;
45684;SDS011;46836;48.388;16.210;2023-06-04T07:46:03;4.40;;;3.80;;
45684;SDS011;46836;48.388;16.210;2023-06-04T07:48:31;5.47;;;3.90;;
45684;SDS011;46836;48.388;16.210;2023-06-04T07:50:58;5.20;;;3.97;;
45684;SDS011;46836;48.388;16.210;2023-06-04T07:53:27;5.90;;;4.20;;
45684;SDS011;46836;48.388;16.210;2023-06-04T07:55:54;4.63;;;4.13;;
45684;SDS011;46836;48.388;16.210;2023-06-04T07:58:22;4.47;;;3.40;;
45684;SDS011;46836;48.388;16.210;2023-06-04T08:00:50;7.90;;;3.60;;
45684;SDS011;46836;48.388;16.210;2023-06-04T08:03:17;8.90;;;3.97;;
45684;SDS011;46836;48.388;16.210;2023-06-04T08:05:45;5.47;;;3.73;;
45684;SDS011;46836;48.388;16.210;2023-06-04T08:08:12;6.20;;;4.40;;
45684;SDS011;46836;48.388;16.210;2023-06-04T08:10:39;4.17;;;3.70;;
45684;SDS011;46836;48.388;16.210;2023-06-04T08:13:07;4.87;;;4.27;;
45684;SDS011;46836;48.388;16.210;2023-06-04T08:15:36;4.03;;;3.30;;
45684;SDS011;46836;48.388;16.210;2023-06-04T08:18:03;6.10;;;4.30;;
45684;SDS011;46836;48.388;16.210;2023-06-04T08:20:30;6.20;;;3.80;;
45684;SDS011;46836;48.388;16.210;2023-06-04T08:22:57;10.30;;;4.20;;
45684;SDS011;46836;48.388;16.210;2023-06-04T08:25:24;4.87;;;4.37;;
45684;SDS011;46836;48.388;16.210;2023-06-04T08:27:51;5.47;;;4.03;;
45684;SDS011;46836;48.388;16.210;2023-06-04T08:30:19;4.03;;;3.73;;
45684;SDS011;46836;48.388;16.210;2023-06-04T08:32:46;3.87;;;3.57;;
45684;SDS011;46836;48.388;16.210;2023-06-04T08:35:13;6.17;;;4.20;;
45684;SDS011;46836;48.388;16.210;2023-06-04T08:37:41;6.80;;;3.80;;
45684;SDS011;46836;48.388;16.210;2023-06-04T08:40:08;7.03;;;4.40;;
45684;SDS011;46836;48.388;16.210;2023-06-04T08:42:44;7.20;;;4.30;;
45684;SDS011;46836;48.388;16.210;2023-06-04T08:45:13;5.13;;;3.80;;
45684;SDS011;46836;48.388;16.210;2023-06-04T08:47:48;7.93;;;4.23;;
45684;SDS011;46836;48.388;16.210;2023-06-04T08:50:21;10.17;;;5.00;;
45684;SDS011;46836;48.388;16.210;2023-06-04T08:52:54;5.57;;;4.40;;
45684;SDS011;46836;48.388;16.210;2023-06-04T08:55:22;4.70;;;4.03;;
45684;SDS011;46836;48.388;16.210;2023-06-04T08:57:49;6.80;;;4.23;;
45684;SDS011;46836;48.388;16.210;2023-06-04T09:00:20;4.50;;;4.07;;
45684;SDS011;46836;48.388;16.210;2023-06-04T09:02:49;6.10;;;4.50;;
45684;SDS011;46836;48.388;16.210;2023-06-04T09:05:20;8.00;;;4.13;;
45684;SDS011;46836;48.388;16.210;2023-06-04T09:07:52;6.03;;;4.03;;
45684;SDS011;46836;48.388;16.210;2023-06-04T09:10:21;9.77;;;4.20;;
45684;SDS011;46836;48.388;16.210;2023-06-04T09:12:51;3.90;;;3.60;;
45684;SDS011;46836;48.388;16.210;2023-06-04T09:15:19;4.90;;;4.00;;
45684;SDS011;46836;48.388;16.210;2023-06-04T09:17:46;4.47;;;4.07;;
45684;SDS011;46836;48.388;16.210;2023-06-04T09:20:19;5.30;;;3.83;;
45684;SDS011;46836;48.388;16.210;2023-06-04T09:22:48;3.93;;;3.63;;
45684;SDS011;46836;48.388;16.210;2023-06-04T09:25:22;8.53;;;4.50;;
45684;SDS011;46836;48.388;16.210;2023-06-04T09:27:52;11.23;;;4.10;;
45684;SDS011;46836;48.388;16.210;2023-06-04T09:30:22;6.27;;;4.10;;
45684;SDS011;46836;48.388;16.210;2023-06-04T09:32:50;10.13;;;4.90;;
45684;SDS011;46836;48.388;16.210;2023-06-04T09:35:20;9.63;;;5.30;;
45684;SDS011;46836;48.388;16.210;2023-06-04T09:37:52;5.77;;;5.20;;
45684;SDS011;46836;48.388;16.210;2023-06-04T09:40:20;6.90;;;5.40;;
45684;SDS011;46836;48.388;16.210;2023-06-04T09:42:49;10.07;;;5.07;;
45684;SDS011;46836;48.388;16.210;2023-06-04T09:45:40;7.97;;;5.00;;
45684;SDS011;46836;48.388;16.210;2023-06-04T09:48:07;6.37;;;4.50;;
45684;SDS011;46836;48.388;16.210;2023-06-04T09:50:45;5.07;;;4.57;;
45684;SDS011;46836;48.388;16.210;2023-06-04T09:53:22;6.80;;;5.20;;
45684;SDS011;46836;48.388;16.210;2023-06-04T09:55:56;6.93;;;4.87;;
45684;SDS011;46836;48.388;16.210;2023-06-04T09:58:30;6.53;;;4.97;;
45684;SDS011;46836;48.388;16.210;2023-06-04T10:00:58;11.57;;;5.80;;
45684;SDS011;46836;48.388;16.210;2023-06-04T10:03:34;8.43;;;5.30;;
45684;SDS011;46836;48.388;16.210;2023-06-04T10:06:03;7.70;;;4.90;;
45684;SDS011;46836;48.388;16.210;2023-06-04T10:08:32;6.30;;;4.60;;
45684;SDS011;46836;48.388;16.210;2023-06-04T10:11:01;5.10;;;4.47;;
45684;SDS011;46836;48.388;16.210;2023-06-04T10:13:30;7.53;;;4.70;;
45684;SDS011;46836;48.388;16.210;2023-06-04T10:16:00;5.97;;;4.63;;
45684;SDS011;46836;48.388;16.210;2023-06-04T10:18:28;7.77;;;4.43;;
45684;SDS011;46836;48.388;16.210;2023-06-04T10:20:57;5.03;;;4.40;;
45684;SDS011;46836;48.388;16.210;2023-06-04T10:23:25;7.60;;;4.50;;
45684;SDS011;46836;48.388;16.210;2023-06-04T10:25:55;7.43;;;4.63;;
45684;SDS011;46836;48.388;16.210;2023-06-04T10:28:23;8.43;;;4.70;;
45684;SDS011;46836;48.388;16.210;2023-06-04T10:30:51;5.83;;;4.90;;
45684;SDS011;46836;48.388;16.210;2023-06-04T10:33:18;7.47;;;4.43;;
45684;SDS011;46836;48.388;16.210;2023-06-04T10:35:46;11.50;;;4.63;;
45684;SDS011;46836;48.388;16.210;2023-06-04T10:38:13;6.90;;;5.27;;
45684;SDS011;46836;48.388;16.210;2023-06-04T10:40:43;7.97;;;4.30;;
45684;SDS011;46836;48.388;16.210;2023-06-04T10:43:11;5.83;;;5.33;;
45684;SDS011;46836;48.388;16.210;2023-06-04T10:45:40;9.60;;;4.23;;
45684;SDS011;46836;48.388;16.210;2023-06-04T10:48:08;8.60;;;4.70;;
45684;SDS011;46836;48.388;16.210;2023-06-04T10:50:50;6.10;;;4.00;;
45684;SDS011;46836;48.388;16.210;2023-06-04T10:53:19;4.80;;;4.40;;
45684;SDS011;46836;48.388;16.210;2023-06-04T10:55:47;7.40;;;4.90;;
45684;SDS011;46836;48.388;16.210;2023-06-04T10:58:15;6.00;;;4.87;;
45684;SDS011;46836;48.388;16.210;2023-06-04T11:00:43;6.20;;;4.57;;
45684;SDS011;46836;48.388;16.210;2023-06-04T11:03:16;5.37;;;4.53;;
45684;SDS011;46836;48.388;16.210;2023-06-04T11:05:44;5.50;;;4.87;;
45684;SDS011;46836;48.388;16.210;2023-06-04T11:08:13;5.67;;;5.17;;
45684;SDS011;46836;48.388;16.210;2023-06-04T11:10:42;8.53;;;5.97;;
45684;SDS011;46836;48.388;16.210;2023-06-04T11:13:10;5.50;;;4.90;;
45684;SDS011;46836;48.388;16.210;2023-06-04T11:15:41;6.13;;;5.27;;
45684;SDS011;46836;48.388;16.210;2023-06-04T11:18:14;7.17;;;4.80;;
45684;SDS011;46836;48.388;16.210;2023-06-04T11:20:46;6.63;;;4.83;;
45684;SDS011;46836;48.388;16.210;2023-06-04T11:23:17;9.73;;;4.90;;
45684;SDS011;46836;48.388;16.210;2023-06-04T11:25:44;5.63;;;4.17;;
45684;SDS011;46836;48.388;16.210;2023-06-04T11:28:18;5.17;;;4.67;;
45684;SDS011;46836;48.388;16.210;2023-06-04T11:31:01;6.27;;;4.73;;
45684;SDS011;46836;48.388;16.210;2023-06-04T11:33:30;6.80;;;5.20;;
45684;SDS011;46836;48.388;16.210;2023-06-04T11:36:07;5.87;;;4.60;;
45684;SDS011;46836;48.388;16.210;2023-06-04T11:38:34;5.13;;;4.60;;
45684;SDS011;46836;48.388;16.210;2023-06-04T11:41:02;4.90;;;4.50;;
45684;SDS011;46836;48.388;16.210;2023-06-04T11:43:32;8.10;;;5.27;;
45684;SDS011;46836;48.388;16.210;2023-06-04T11:46:05;4.90;;;3.77;;
45684;SDS011;46836;48.388;16.210;2023-06-04T11:48:36;5.23;;;4.20;;
45684;SDS011;46836;48.388;16.210;2023-06-04T11:51:07;8.37;;;4.10;;
45684;SDS011;46836;48.388;16.210;2023-06-04T11:53:36;6.87;;;4.30;;
45684;SDS011;46836;48.388;16.210;2023-06-04T11:56:04;13.13;;;4.50;;
45684;SDS011;46836;48.388;16.210;2023-06-04T11:58:31;6.50;;;3.27;;
45684;SDS011;46836;48.388;16.210;2023-06-04T12:00:59;4.30;;;3.70;;
45684;SDS011;46836;48.388;16.210;2023-06-04T12:03:39;7.50;;;3.93;;
45684;SDS011;46836;48.388;16.210;2023-06-04T12:06:15;5.53;;;3.63;;
45684;SDS011;46836;48.388;16.210;2023-06-04T12:08:48;8.47;;;3.80;;
45684;SDS011;46836;48.388;16.210;2023-06-04T12:11:35;11.10;;;4.30;;
45684;SDS011;46836;48.388;16.210;2023-06-04T12:14:05;6.33;;;4.30;;
45684;SDS011;46836;48.388;16.210;2023-06-04T12:16:33;7.80;;;4.53;;
45684;SDS011;46836;48.388;16.210;2023-06-04T12:19:05;5.20;;;3.70;;
45684;SDS011;46836;48.388;16.210;2023-06-04T12:21:34;4.70;;;4.23;;
45684;SDS011;46836;48.388;16.210;2023-06-04T12:24:11;6.13;;;3.77;;
45684;SDS011;46836;48.388;16.210;2023-06-04T12:26:42;4.63;;;3.43;;
45684;SDS011;46836;48.388;16.210;2023-06-04T12:29:14;7.03;;;3.67;;
45684;SDS011;46836;48.388;16.210;2023-06-04T12:31:44;4.03;;;3.60;;
45684;SDS011;46836;48.388;16.210;2023-06-04T12:34:15;4.17;;;3.73;;
45684;SDS011;46836;48.388;16.210;2023-06-04T12:36:44;4.73;;;4.20;;
45684;SDS011;46836;48.388;16.210;2023-06-04T12:39:11;8.40;;;4.03;;
45684;SDS011;46836;48.388;16.210;2023-06-04T12:41:38;9.13;;;4.23;;
45684;SDS011;46836;48.388;16.210;2023-06-04T12:44:12;4.00;;;3.70;;
45684;SDS011;46836;48.388;16.210;2023-06-04T12:46:39;4.67;;;3.80;;
45684;SDS011;46836;48.388;16.210;2023-06-04T12:49:06;6.83;;;4.03;;
45684;SDS011;46836;48.388;16.210;2023-06-04T12:51:33;5.30;;;3.83;;
45684;SDS011;46836;48.388;16.210;2023-06-04T12:54:00;6.83;;;3.83;;
45684;SDS011;46836;48.388;16.210;2023-06-04T12:56:27;4.40;;;4.00;;
45684;SDS011;46836;48.388;16.210;2023-06-04T12:58:55;4.37;;;3.33;;
45684;SDS011;46836;48.388;16.210;2023-06-04T13:01:22;6.40;;;4.20;;
45684;SDS011;46836;48.388;16.210;2023-06-04T13:03:52;6.23;;;4.07;;
45684;SDS011;46836;48.388;16.210;2023-06-04T13:06:20;5.30;;;4.10;;
45684;SDS011;46836;48.388;16.210;2023-06-04T13:08:47;5.63;;;3.87;;
45684;SDS011;46836;48.388;16.210;2023-06-04T13:11:14;4.73;;;3.90;;
45684;SDS011;46836;48.388;16.210;2023-06-04T13:13:41;5.30;;;4.10;;
45684;SDS011;46836;48.388;16.210;2023-06-04T13:16:09;5.07;;;4.00;;
45684;SDS011;46836;48.388;16.210;2023-06-04T13:18:37;4.80;;;4.10;;
45684;SDS011;46836;48.388;16.210;2023-06-04T13:21:05;4.47;;;4.07;;
45684;SDS011;46836;48.388;16.210;2023-06-04T13:23:32;5.07;;;3.90;;
45684;SDS011;46836;48.388;16.210;2023-06-04T13:26:18;6.70;;;3.97;;
45684;SDS011;46836;48.388;16.210;2023-06-04T13:28:46;4.00;;;3.60;;
45684;SDS011;46836;48.388;16.210;2023-06-04T13:31:13;3.87;;;3.57;;
45684;SDS011;46836;48.388;16.210;2023-06-04T13:33:41;7.23;;;3.80;;
45684;SDS011;46836;48.388;16.210;2023-06-04T13:36:08;8.00;;;4.53;;
45684;SDS011;46836;48.388;16.210;2023-06-04T13:38:35;7.87;;;4.37;;
45684;SDS011;46836;48.388;16.210;2023-06-04T13:41:03;6.90;;;4.00;;
45684;SDS011;46836;48.388;16.210;2023-06-04T13:43:30;6.03;;;4.80;;
45684;SDS011;46836;48.388;16.210;2023-06-04T13:45:57;5.83;;;4.10;;
45684;SDS011;46836;48.388;16.210;2023-06-04T13:48:24;6.77;;;4.60;;
45684;SDS011;46836;48.388;16.210;2023-06-04T13:50:51;7.57;;;3.67;;
45684;SDS011;46836;48.388;16.210;2023-06-04T13:53:18;6.83;;;4.23;;
45684;SDS011;46836;48.388;16.210;2023-06-04T13:55:45;8.30;;;4.37;;
45684;SDS011;46836;48.388;16.210;2023-06-04T13:58:12;4.20;;;3.80;;
45684;SDS011;46836;48.388;16.210;2023-06-04T14:00:41;12.67;;;4.30;;
45684;SDS011;46836;48.388;16.210;2023-06-04T14:03:09;6.00;;;3.93;;
45684;SDS011;46836;48.388;16.210;2023-06-04T14:05:37;6.70;;;3.30;;
45684;SDS011;46836;48.388;16.210;2023-06-04T14:08:04;7.73;;;3.57;;
45684;SDS011;46836;48.388;16.210;2023-06-04T14:10:31;4.83;;;4.30;;
45684;SDS011;46836;48.388;16.210;2023-06-04T14:12:58;5.33;;;4.17;;
45684;SDS011;46836;48.388;16.210;2023-06-04T14:15:25;5.90;;;3.90;;
45684;SDS011;46836;48.388;16.210;2023-06-04T14:17:52;5.40;;;4.10;;
45684;SDS011;46836;48.388;16.210;2023-06-04T14:20:19;6.77;;;4.23;;
45684;SDS011;46836;48.388;16.210;2023-06-04T14:22:46;5.17;;;3.50;;
45684;SDS011;46836;48.388;16.210;2023-06-04T14:25:14;5.67;;;3.70;;
45684;SDS011;46836;48.388;16.210;2023-06-04T14:27:41;6.40;;;3.73;;
45684;SDS011;46836;48.388;16.210;2023-06-04T14:30:08;4.13;;;3.20;;
45684;SDS011;46836;48.388;16.210;2023-06-04T14:32:36;8.03;;;4.00;;
45684;SDS011;46836;48.388;16.210;2023-06-04T14:35:03;4.80;;;3.97;;
45684;SDS011;46836;48.388;16.210;2023-06-04T14:37:33;6.10;;;3.53;;
45684;SDS011;46836;48.388;16.210;2023-06-04T14:40:00;8.30;;;4.20;;
45684;SDS011;46836;48.388;16.210;2023-06-04T14:42:27;3.93;;;3.53;;
45684;SDS011;46836;48.388;16.210;2023-06-04T14:44:54;9.80;;;6.50;;